createdAt,value
2023-02-07T00:02:15.968Z,65.10
2023-02-07T00:07:36.813Z,64.29
2023-02-07T00:12:57.805Z,65.01
2023-02-07T00:18:18.646Z,64.66
2023-02-07T00:23:39.408Z,64.33
2023-02-07T00:29:00.162Z,64.41
2023-02-07T00:34:20.934Z,64.74
2023-02-07T00:39:41.682Z,64.59
2023-02-07T00:45:02.365Z,64.68
2023-02-07T00:50:23.092Z,64.84
2023-02-07T00:55:44.969Z,64.79
2023-02-07T01:01:05.797Z,64.54
2023-02-07T01:06:28.003Z,64.63
2023-02-07T01:11:50.339Z,64.84
2023-02-07T01:17:12.661Z,65.22
2023-02-07T01:22:33.354Z,64.64
2023-02-07T01:27:54.177Z,65.12
2023-02-07T01:33:14.949Z,64.40
2023-02-07T01:38:35.881Z,64.97
2023-02-07T01:44:02.314Z,65.05
2023-02-07T01:49:31.188Z,65.77
2023-02-07T01:54:58.085Z,65.43
2023-02-07T02:00:19.244Z,65.59
2023-02-07T02:05:40.271Z,65.58
2023-02-07T02:11:17.199Z,65.29
2023-02-07T02:17:17.985Z,65.43
2023-02-07T02:22:50.670Z,65.86
2023-02-07T02:28:23.464Z,65.52
2023-02-07T02:34:15.157Z,65.72
2023-02-07T02:40:04.639Z,65.53
2023-02-07T02:45:31.954Z,65.58
2023-02-07T02:50:53.607Z,65.60
2023-02-07T02:56:28.537Z,66.21
2023-02-07T03:02:05.087Z,65.70
2023-02-07T03:07:38.466Z,66.18
2023-02-07T03:13:26.632Z,66.35
2023-02-07T03:18:59.601Z,65.74
2023-02-07T03:24:23.269Z,65.92
2023-02-07T03:29:46.914Z,65.94
2023-02-07T03:35:14.407Z,66.62
2023-02-07T03:40:46.178Z,67.07
2023-02-07T03:46:09.241Z,66.75
2023-02-07T03:51:30.283Z,66.50
2023-02-07T03:56:51.173Z,67.69
2023-02-07T04:02:12.134Z,66.98
2023-02-07T04:07:32.804Z,67.31
2023-02-07T04:12:53.988Z,67.41
2023-02-07T04:18:14.834Z,67.27
2023-02-07T04:23:35.567Z,67.15
2023-02-07T04:28:56.636Z,67.80
2023-02-07T04:34:17.548Z,67.33
2023-02-07T04:39:38.146Z,67.40
2023-02-07T04:44:58.923Z,67.13
2023-02-07T04:50:19.734Z,67.83
2023-02-07T04:55:40.688Z,67.45
2023-02-07T05:01:02.061Z,67.54
2023-02-07T05:06:22.799Z,67.43
2023-02-07T05:11:43.585Z,67.73
2023-02-07T05:17:05.559Z,68.05
2023-02-07T05:22:26.503Z,67.60
2023-02-07T05:27:47.185Z,68.12
2023-02-07T05:33:08.090Z,68.32
2023-02-07T05:38:28.885Z,68.96
2023-02-07T05:43:50.039Z,68.26
2023-02-07T05:49:10.923Z,67.84
2023-02-07T05:54:31.899Z,67.96
2023-02-07T05:59:52.717Z,67.92
2023-02-07T06:05:15.420Z,67.71
2023-02-07T06:10:36.717Z,67.72
2023-02-07T06:15:57.574Z,68.62
2023-02-07T06:21:18.315Z,68.30
2023-02-07T06:26:39.382Z,68.43
2023-02-07T06:32:00.185Z,68.34
2023-02-07T06:37:20.874Z,68.42
2023-02-07T06:42:41.524Z,68.47
2023-02-07T06:48:02.363Z,67.78
2023-02-07T06:53:23.068Z,65.37
2023-02-07T06:58:43.856Z,62.44
2023-02-07T07:04:04.480Z,62.16
2023-02-07T07:09:25.668Z,58.78
2023-02-07T07:14:46.639Z,55.09
2023-02-07T07:20:08.128Z,54.21
2023-02-07T07:25:29.053Z,51.87
2023-02-07T07:30:49.852Z,49.75
2023-02-07T07:36:10.677Z,35.28
2023-02-07T07:41:31.494Z,34.97
2023-02-07T07:46:53.069Z,38.74
2023-02-07T07:52:14.095Z,39.31
2023-02-07T07:57:35.036Z,34.57
2023-02-07T08:02:55.579Z,37.05
2023-02-07T08:08:16.768Z,38.10
2023-02-07T08:13:38.018Z,30.56
2023-02-07T08:18:59.238Z,30.06
2023-02-07T08:24:20.078Z,27.20
2023-02-07T08:29:40.823Z,22.08
2023-02-07T08:35:01.531Z,22.87
2023-02-07T08:40:22.873Z,23.85
2023-02-07T08:45:47.681Z,24.83
2023-02-07T08:51:09.184Z,21.57
2023-02-07T08:56:30.083Z,17.79
2023-02-07T09:01:51.363Z,16.87
2023-02-07T09:07:12.623Z,14.68
2023-02-07T09:12:34.254Z,13.65
2023-02-07T09:17:55.069Z,13.03
2023-02-07T09:23:19.609Z,13.80
2023-02-07T09:28:41.314Z,14.00
2023-02-07T09:34:03.119Z,12.39
2023-02-07T09:39:24.412Z,13.01
2023-02-07T09:44:57.569Z,11.56
2023-02-07T09:50:21.650Z,12.68
2023-02-07T09:55:47.153Z,10.31
2023-02-07T10:01:19.376Z,10.90
2023-02-07T10:06:41.247Z,11.61
2023-02-07T10:12:20.854Z,9.91
2023-02-07T10:18:30.268Z,12.40
2023-02-07T10:24:09.443Z,15.25
2023-02-07T10:29:37.192Z,17.78
2023-02-07T10:35:02.175Z,16.38
2023-02-07T10:40:25.620Z,13.96
2023-02-07T10:45:51.899Z,15.89
2023-02-07T10:51:36.115Z,14.07
2023-02-07T10:57:02.575Z,13.31
2023-02-07T11:02:32.444Z,15.51
2023-02-07T11:08:22.974Z,18.39
2023-02-07T11:13:51.002Z,19.04
2023-02-07T11:19:17.643Z,19.21
2023-02-07T11:24:38.783Z,20.63
2023-02-07T11:30:00.920Z,21.09
2023-02-07T11:35:21.830Z,21.07
2023-02-07T11:40:42.334Z,21.37
2023-02-07T11:46:10.886Z,21.98
2023-02-07T11:51:32.720Z,23.06
2023-02-07T11:57:00.792Z,23.93
2023-02-07T12:02:25.270Z,24.83
2023-02-07T12:07:49.317Z,24.92
2023-02-07T12:13:37.932Z,26.35
2023-02-07T12:19:05.817Z,25.95
2023-02-07T12:24:29.125Z,27.39
2023-02-07T12:30:00.374Z,26.89
2023-02-07T12:35:51.983Z,29.29
2023-02-07T12:41:24.625Z,29.40
2023-02-07T12:46:58.974Z,31.08
2023-02-07T12:52:39.872Z,30.21
2023-02-07T12:58:25.807Z,32.92
2023-02-07T13:04:02.163Z,31.82
2023-02-07T13:10:01.258Z,32.50
2023-02-07T13:15:24.287Z,32.91
2023-02-07T13:20:48.461Z,31.96
2023-02-07T13:26:14.822Z,33.42
2023-02-07T13:32:01.808Z,34.16
2023-02-07T13:37:24.832Z,33.32
2023-02-07T13:43:11.217Z,33.47
2023-02-07T13:48:44.533Z,33.66
2023-02-07T13:54:31.182Z,33.63
2023-02-07T14:00:28.070Z,33.42
2023-02-07T14:05:50.044Z,33.36
2023-02-07T14:11:38.021Z,33.66
2023-02-07T14:16:59.963Z,33.66
2023-02-07T14:22:22.184Z,34.07
2023-02-07T14:28:03.845Z,33.75
2023-02-07T14:33:36.659Z,33.92
2023-02-07T14:39:27.279Z,34.00
2023-02-07T14:44:48.298Z,34.05
2023-02-07T14:50:09.601Z,34.38
2023-02-07T14:55:35.456Z,34.74
2023-02-07T15:00:58.610Z,34.67
2023-02-07T15:06:31.895Z,34.12
2023-02-07T15:12:05.819Z,34.37
2023-02-07T15:17:43.733Z,34.51
2023-02-07T15:23:07.465Z,34.53
2023-02-07T15:28:29.877Z,35.06
2023-02-07T15:33:58.677Z,34.79
2023-02-07T15:39:23.892Z,35.36
2023-02-07T15:44:52.482Z,35.00
2023-02-07T15:50:25.168Z,35.84
2023-02-07T15:55:47.615Z,35.76
2023-02-07T16:01:22.926Z,36.48
2023-02-07T16:07:03.207Z,36.79
2023-02-07T16:12:31.161Z,37.33
2023-02-07T16:17:52.238Z,37.69
2023-02-07T16:23:12.902Z,38.19
2023-02-07T16:28:33.750Z,38.74
2023-02-07T16:33:54.572Z,39.31
2023-02-07T16:39:15.680Z,39.69
2023-02-07T16:44:36.810Z,40.67
2023-02-07T16:49:59.128Z,40.28
2023-02-07T16:55:20.555Z,41.10
2023-02-07T17:00:41.614Z,41.07
2023-02-07T17:06:04.232Z,40.94
2023-02-07T17:11:26.335Z,40.88
2023-02-07T17:16:47.341Z,41.50
2023-02-07T17:22:08.337Z,41.75
2023-02-07T17:27:28.944Z,42.92
2023-02-07T17:32:49.820Z,43.00
2023-02-07T17:38:10.417Z,42.54
2023-02-07T17:43:34.390Z,43.83
2023-02-07T17:48:55.767Z,42.77
2023-02-07T17:54:16.640Z,43.86
2023-02-07T17:59:37.611Z,43.92
2023-02-07T18:04:59.020Z,43.59
2023-02-07T18:10:30.809Z,44.09
2023-02-07T18:15:51.736Z,44.84
2023-02-07T18:21:13.672Z,45.06
2023-02-07T18:26:34.876Z,45.85
2023-02-07T18:31:55.656Z,45.43
2023-02-07T18:37:16.588Z,46.42
2023-02-07T18:42:39.037Z,46.08
2023-02-07T18:47:59.957Z,45.75
2023-02-07T18:53:21.400Z,47.58
2023-02-07T18:58:42.394Z,47.72
2023-02-07T19:04:06.587Z,48.08
2023-02-07T19:09:27.681Z,48.55
2023-02-07T19:14:48.946Z,48.54
2023-02-07T19:20:10.574Z,49.24
2023-02-07T19:25:32.094Z,49.70
2023-02-07T19:30:53.019Z,50.03
2023-02-07T19:36:13.845Z,48.86
2023-02-07T19:41:35.428Z,49.74
2023-02-07T19:46:56.917Z,49.91
2023-02-07T19:52:23.664Z,50.97
2023-02-07T19:57:45.354Z,50.78
2023-02-07T20:03:06.180Z,50.88
2023-02-07T20:08:27.214Z,51.14
2023-02-07T20:13:50.488Z,51.30
2023-02-07T20:19:11.430Z,51.35
2023-02-07T20:24:32.474Z,52.08
2023-02-07T20:29:53.647Z,53.38
2023-02-07T20:35:15.012Z,52.98
2023-02-07T20:40:36.197Z,52.15
2023-02-07T20:46:08.216Z,52.24
2023-02-07T20:51:29.372Z,53.67
2023-02-07T20:56:54.020Z,54.13
2023-02-07T21:02:15.077Z,53.42
2023-02-07T21:07:35.742Z,54.49
2023-02-07T21:12:56.995Z,54.63
2023-02-07T21:18:18.013Z,56.07
2023-02-07T21:23:38.740Z,54.19
2023-02-07T21:29:00.455Z,54.63
2023-02-07T21:34:22.249Z,55.45
2023-02-07T21:39:43.549Z,55.10
2023-02-07T21:45:05.120Z,55.25
2023-02-07T21:50:26.267Z,55.47
2023-02-07T21:55:47.152Z,56.16
2023-02-07T22:01:18.752Z,56.21
2023-02-07T22:06:42.175Z,55.76
2023-02-07T22:12:03.168Z,56.88
2023-02-07T22:17:23.825Z,57.17
2023-02-07T22:22:44.629Z,56.93
2023-02-07T22:28:05.943Z,56.39
2023-02-07T22:33:26.643Z,57.21
2023-02-07T22:38:47.886Z,57.40
2023-02-07T22:44:10.829Z,57.26
2023-02-07T22:49:31.598Z,57.69
2023-02-07T22:54:52.312Z,57.65
2023-02-07T23:00:13.596Z,58.03
2023-02-07T23:05:37.586Z,57.99
2023-02-07T23:10:58.652Z,58.40
2023-02-07T23:16:21.188Z,58.64
2023-02-07T23:21:42.211Z,58.36
2023-02-07T23:27:03.392Z,58.72
2023-02-07T23:32:24.087Z,59.58
2023-02-07T23:37:44.892Z,59.38
2023-02-07T23:43:05.802Z,58.85
2023-02-07T23:48:26.813Z,59.78
2023-02-07T23:53:47.838Z,59.48
2023-02-07T23:59:09.797Z,59.58
